Time;durP1;ratioP1;P1;durP2;ratioP2;P2;SDS_P1;SDS_P2;PMS_P1;PMS_P2;Temp;Humidity;BMP_temperature;BMP_pressure;BME280_temperature;BME280_humidity;BME280_pressure;Samples;Min_cycle;Max_cycle;Signal;HPM_P1;HPM_P2
2021/11/11 00:01:16;;;;;;;73.15;36.63;;;;;;;8.68;100.00;102246.97;10208035;28;20056;-71
2021/11/11 00:06:16;;;;;;;71.45;37.90;;;;;;;8.69;100.00;102248.63;10188496;28;20096;-70
2021/11/11 00:11:13;;;;;;;70.95;37.92;;;;;;;8.70;100.00;102236.63;10201461;28;20508;-69
2021/11/11 00:16:09;;;;;;;79.75;37.42;;;;;;;8.71;100.00;102230.91;10199348;28;20073;-69
2021/11/11 00:21:06;;;;;;;81.55;38.55;;;;;;;8.77;100.00;102229.00;10199415;28;20145;-70
2021/11/11 00:26:03;;;;;;;71.25;34.72;;;;;;;8.72;100.00;102226.25;10197076;28;20479;-68
2021/11/11 00:31:00;;;;;;;81.57;38.05;;;;;;;8.74;100.00;102235.00;10203192;28;20050;-70
2021/11/11 00:35:56;;;;;;;80.88;38.50;;;;;;;8.75;100.00;102225.72;10207678;28;20049;-70
2021/11/11 00:40:53;;;;;;;99.07;41.42;;;;;;;8.71;100.00;102238.28;10202549;28;20073;-68
2021/11/11 00:45:49;;;;;;;89.80;40.90;;;;;;;8.60;100.00;102230.03;10195603;28;20512;-69
2021/11/11 00:50:46;;;;;;;101.60;42.25;;;;;;;8.58;100.00;102232.22;10204037;28;20136;-69
2021/11/11 00:55:42;;;;;;;114.22;44.40;;;;;;;8.59;100.00;102239.31;10181084;28;20151;-68
2021/11/11 01:00:39;;;;;;;116.28;45.67;;;;;;;8.58;100.00;102237.66;10199889;28;20084;-69
2021/11/11 01:05:36;;;;;;;108.85;44.40;;;;;;;8.62;100.00;102233.31;10192449;28;20099;-70
2021/11/11 01:10:34;;;;;;;101.15;40.90;;;;;;;8.60;100.00;102246.41;10189356;28;20038;-69
2021/11/11 01:15:32;;;;;;;101.60;42.95;;;;;;;8.68;100.00;102241.50;10193679;28;20054;-70
2021/11/11 01:20:29;;;;;;;107.40;42.88;;;;;;;8.59;100.00;102239.31;10203895;28;20072;-69
2021/11/11 01:25:29;;;;;;;110.97;42.60;;;;;;;8.59;100.00;102243.97;10199375;28;20049;-69
2021/11/11 01:30:25;;;;;;;132.02;46.22;;;;;;;8.57;100.00;102252.41;10199454;28;20889;-69
2021/11/11 01:35:22;;;;;;;103.13;44.63;;;;;;;8.58;100.00;102254.03;10208920;28;20061;-69
2021/11/11 01:40:19;;;;;;;99.38;42.85;;;;;;;8.61;100.00;102245.34;10193782;28;20045;-69
2021/11/11 01:45:16;;;;;;;94.25;40.88;;;;;;;8.59;100.00;102247.50;10181252;28;20108;-69
2021/11/11 01:50:12;;;;;;;98.80;42.80;;;;;;;8.54;100.00;102241.19;10205407;28;20176;-68
2021/11/11 01:55:10;;;;;;;90.15;40.35;;;;;;;8.50;100.00;102235.47;10182093;28;20056;-69
2021/11/11 02:00:14;;;;;;;82.90;38.88;;;;;;;8.52;100.00;102233.31;10188648;28;20057;-68
2021/11/11 02:05:10;;;;;;;85.22;36.92;;;;;;;8.57;100.00;102230.59;10175045;28;20061;-69
2021/11/11 02:10:07;;;;;;;74.57;35.80;;;;;;;8.61;100.00;102215.34;10192080;28;20054;-68
2021/11/11 02:15:04;;;;;;;69.95;35.95;;;;;;;8.63;100.00;102229.53;10203880;28;20049;-69
2021/11/11 02:20:10;;;;;;;76.55;38.05;;;;;;;8.66;100.00;102219.16;10192210;28;20061;-70
2021/11/11 02:25:09;;;;;;;70.40;35.75;;;;;;;8.64;100.00;102222.97;10204535;28;20419;-69
2021/11/11 02:30:08;;;;;;;63.83;35.33;;;;;;;8.62;100.00;102216.16;10208676;28;20107;-70
2021/11/11 02:35:07;;;;;;;58.05;31.83;;;;;;;8.62;100.00;102227.88;10189795;28;20046;-68
2021/11/11 02:40:32;;;;;;;51.10;29.20;;;;;;;8.60;100.00;102221.06;10184309;28;20050;-69
2021/11/11 02:45:32;;;;;;;49.72;28.38;;;;;;;8.60;100.00;102219.13;10191853;28;20096;-69
2021/11/11 02:50:29;;;;;;;55.70;30.13;;;;;;;8.61;100.00;102212.63;10186351;28;20527;-69
2021/11/11 02:55:27;;;;;;;51.10;29.38;;;;;;;8.59;100.00;102212.06;10190421;28;20125;-70
2021/11/11 03:00:27;;;;;;;49.70;28.10;;;;;;;8.57;100.00;102221.59;10195448;28;20141;-69
2021/11/11 03:05:30;;;;;;;51.38;28.67;;;;;;;8.59;100.00;102214.78;10198584;28;20045;-68
2021/11/11 03:10:29;;;;;;;50.85;29.15;;;;;;;8.54;100.00;102203.88;10199796;28;20077;-69
2021/11/11 03:15:28;;;;;;;58.15;30.60;;;;;;;8.60;100.00;102208.22;10195268;28;20108;-69
2021/11/11 03:20:26;;;;;;;60.38;31.67;;;;;;;8.60;100.00;102200.06;10194049;28;20060;-69
2021/11/11 03:25:25;;;;;;;55.58;29.65;;;;;;;8.58;100.00;102204.94;10190210;28;20050;-68
2021/11/11 03:30:24;;;;;;;57.30;31.00;;;;;;;8.61;100.00;102198.97;10196094;28;20049;-68
2021/11/11 03:35:21;;;;;;;65.80;35.10;;;;;;;8.56;100.00;102196.25;10212742;28;20076;-69
2021/11/11 03:40:23;;;;;;;67.95;34.00;;;;;;;8.52;100.00;102188.88;10207891;28;20084;-69
2021/11/11 03:45:20;;;;;;;63.47;34.05;;;;;;;8.53;100.00;102196.75;10195628;28;20085;-69
2021/11/11 03:50:19;;;;;;;72.32;36.15;;;;;;;8.51;100.00;102203.56;10188003;28;20462;-69
2021/11/11 03:55:17;;;;;;;69.30;33.40;;;;;;;8.49;100.00;102195.66;10193781;28;20798;-69
2021/11/11 04:00:16;;;;;;;74.05;35.15;;;;;;;8.47;100.00;102197.84;10205792;28;20077;-69
2021/11/11 04:05:14;;;;;;;66.18;34.55;;;;;;;8.50;100.00;102202.75;10184196;28;20492;-69
2021/11/11 04:10:11;;;;;;;64.78;33.10;;;;;;;8.49;100.00;102194.84;10198609;28;20096;-70
2021/11/11 04:15:25;;;;;;;67.50;31.15;;;;;;;8.55;100.00;102189.13;10198862;28;20577;-69
2021/11/11 04:20:22;;;;;;;67.07;33.13;;;;;;;8.58;100.00;102198.69;10196684;28;20049;-68
2021/11/11 04:25:32;;;;;;;67.45;33.25;;;;;;;8.56;100.00;102189.94;10200084;28;20085;-69
2021/11/11 04:30:31;;;;;;;74.50;35.05;;;;;;;8.61;100.00;102188.06;10199406;28;20065;-69
2021/11/11 04:35:28;;;;;;;78.90;36.65;;;;;;;8.59;100.00;102182.06;10208993;28;20072;-69
2021/11/11 05:06:10;;;;;;;84.38;39.25;;;;;;;8.57;100.00;102192.41;10186250;28;20042;-68
2021/11/11 05:11:07;;;;;;;82.95;38.88;;;;;;;8.54;100.00;102192.13;10190763;28;20096;-69
2021/11/11 05:16:05;;;;;;;83.70;41.50;;;;;;;8.48;100.00;102199.47;10195893;28;20096;-69
2021/11/11 05:21:02;;;;;;;88.18;42.22;;;;;;;8.44;100.00;102206.53;10200320;28;20077;-69
2021/11/11 05:25:58;;;;;;;89.53;42.47;;;;;;;8.45;100.00;102210.94;10195743;28;20053;-69
2021/11/11 05:30:54;;;;;;;88.82;42.80;;;;;;;8.40;100.00;102197.25;10204079;28;20041;-69
2021/11/11 05:35:51;;;;;;;85.60;43.28;;;;;;;8.44;100.00;102190.19;10195018;28;20076;-69
2021/11/11 05:40:48;;;;;;;83.55;41.80;;;;;;;8.47;100.00;102184.22;10191419;28;20063;-69
2021/11/11 05:45:44;;;;;;;83.15;42.03;;;;;;;8.52;100.00;102173.31;10194429;28;20057;-69
2021/11/11 05:50:41;;;;;;;88.32;39.75;;;;;;;8.50;100.00;102186.41;10206703;28;20559;-69
2021/11/11 05:55:38;;;;;;;83.65;43.03;;;;;;;8.56;100.00;102190.78;10190758;28;20049;-69
2021/11/11 06:00:34;;;;;;;76.53;37.97;;;;;;;8.61;100.00;102198.97;10203083;28;20065;-69
2021/11/11 06:05:31;;;;;;;73.15;39.00;;;;;;;8.61;100.00;102198.16;10197626;28;20065;-69
2021/11/11 06:10:27;;;;;;;70.35;38.08;;;;;;;8.61;100.00;102198.97;10189463;28;20635;-70
2021/11/11 06:15:24;;;;;;;67.82;35.17;;;;;;;8.58;100.00;102193.22;10199881;28;20405;-70
2021/11/11 06:20:30;;;;;;;70.40;37.65;;;;;;;8.59;100.00;102206.59;10193637;28;20049;-70
2021/11/11 06:25:27;;;;;;;65.20;35.20;;;;;;;8.53;100.00;102213.13;10198255;28;20392;-69
2021/11/11 06:30:23;;;;;;;69.97;37.42;;;;;;;8.52;100.00;102211.50;10192885;28;20115;-69
2021/11/11 06:35:20;;;;;;;65.93;35.75;;;;;;;8.50;100.00;102213.66;10200818;28;20088;-68
2021/11/11 06:40:16;;;;;;;70.30;34.78;;;;;;;8.53;100.00;102215.84;10210670;28;20133;-69
2021/11/11 06:45:14;;;;;;;72.25;37.53;;;;;;;8.58;100.00;102221.31;10205316;28;20486;-69
2021/11/11 06:50:11;;;;;;;67.63;36.78;;;;;;;8.59;100.00;102214.78;10200620;28;20076;-69
2021/11/11 06:55:09;;;;;;;60.30;33.63;;;;;;;8.69;100.00;102210.44;10202691;28;20542;-69
2021/11/11 07:00:09;;;;;;;73.20;36.65;;;;;;;8.70;100.00;102212.06;10209155;28;20132;-69
2021/11/11 07:05:06;;;;;;;66.05;34.72;;;;;;;8.68;100.00;102209.63;10195294;28;20157;-68
2021/11/11 07:10:03;;;;;;;70.60;36.50;;;;;;;8.69;100.00;102221.34;10199510;28;20082;-68
2021/11/11 07:15:04;;;;;;;66.25;33.80;;;;;;;8.67;100.00;102223.53;10194303;28;20488;-69
2021/11/11 07:20:02;;;;;;;64.82;34.53;;;;;;;8.71;100.00;102224.63;10205277;28;20054;-69
2021/11/11 07:24:59;;;;;;;71.90;35.15;;;;;;;8.75;100.00;102220.25;10210636;28;20123;-68
2021/11/11 07:29:55;;;;;;;74.40;35.85;;;;;;;8.79;100.00;102222.19;10188953;28;20397;-70
2021/11/11 07:34:52;;;;;;;72.18;35.97;;;;;;;8.83;100.00;102222.47;10184507;28;20096;-69
2021/11/11 07:39:50;;;;;;;67.32;34.05;;;;;;;8.88;100.00;102235.31;10203601;28;20077;-69
2021/11/11 07:44:47;;;;;;;74.13;36.78;;;;;;;8.87;100.00;102237.22;10194194;28;20038;-70
2021/11/11 07:49:44;;;;;;;80.65;38.10;;;;;;;8.89;100.00;102243.25;10194028;28;20041;-69
2021/11/11 07:54:40;;;;;;;84.80;40.25;;;;;;;8.88;100.00;102236.13;10197058;28;20408;-69
2021/11/11 07:59:39;;;;;;;82.65;38.47;;;;;;;8.91;100.00;102241.06;10203495;28;20140;-68
2021/11/11 08:04:37;;;;;;;74.15;38.72;;;;;;;9.00;100.00;102250.31;10201930;28;20048;-68
2021/11/11 08:09:33;;;;;;;79.82;38.55;;;;;;;8.94;100.00;102256.06;10208601;28;20049;-69
2021/11/11 08:14:30;;;;;;;88.93;41.45;;;;;;;8.99;100.00;102240.53;10185432;28;20045;-69
2021/11/11 08:19:26;;;;;;;83.47;41.15;;;;;;;8.92;100.00;102237.22;10202614;28;20116;-68
2021/11/11 08:24:23;;;;;;;89.18;42.65;;;;;;;9.02;100.00;102250.06;10194639;28;20049;-68
2021/11/11 08:29:19;;;;;;;91.25;44.83;;;;;;;8.97;100.00;102234.50;10188763;28;20053;-69
2021/11/11 08:34:16;;;;;;;86.75;41.25;;;;;;;9.00;100.00;102233.97;10204117;28;20054;-68
2021/11/11 08:39:12;;;;;;;91.47;44.47;;;;;;;8.98;100.00;102236.16;10192123;28;20058;-68
2021/11/11 08:44:09;;;;;;;94.72;47.50;;;;;;;9.00;100.00;102228.50;10201994;28;20050;-69
2021/11/11 08:49:06;;;;;;;92.60;44.42;;;;;;;9.04;100.00;102237.78;10196885;28;20050;-69
2021/11/11 08:54:03;;;;;;;90.63;46.22;;;;;;;9.03;100.00;102247.09;10205631;28;20077;-69
2021/11/11 08:59:03;;;;;;;85.32;44.88;;;;;;;8.96;100.00;102253.91;10206453;28;20100;-69
2021/11/11 09:03:59;;;;;;;92.28;45.17;;;;;;;8.98;100.00;102236.16;10201269;28;20566;-69
2021/11/11 09:08:56;;;;;;;92.63;47.53;;;;;;;9.00;100.00;102239.41;10199514;28;20038;-68
2021/11/11 09:13:53;;;;;;;86.88;46.38;;;;;;;9.04;100.00;102240.53;10187446;28;20091;-69
2021/11/11 09:18:50;;;;;;;87.82;44.20;;;;;;;9.02;100.00;102237.25;10200093;28;20550;-69
2021/11/11 09:23:48;;;;;;;85.45;46.00;;;;;;;9.13;100.00;102231.81;10202838;28;20443;-69
2021/11/11 09:28:45;;;;;;;82.25;44.78;;;;;;;9.14;100.00;102230.72;10191046;28;20052;-69
2021/11/11 09:33:44;;;;;;;85.47;42.55;;;;;;;9.15;100.00;102230.44;10203471;28;20046;-69
2021/11/11 09:38:41;;;;;;;84.88;43.28;;;;;;;9.13;100.00;102232.63;10178474;28;20119;-69
2021/11/11 09:43:39;;;;;;;79.60;43.92;;;;;;;9.17;100.00;102238.38;10188656;28;20073;-68
2021/11/11 09:48:37;;;;;;;83.32;41.85;;;;;;;9.10;100.00;102232.34;10190182;28;20688;-69
2021/11/11 09:53:41;;;;;;;79.00;41.40;;;;;;;9.14;100.00;102227.97;10195742;28;20065;-69
2021/11/11 09:58:56;;;;;;;79.15;42.55;;;;;;;9.17;100.00;102238.38;10197062;28;20056;-69
2021/11/11 10:03:54;;;;;;;77.78;42.45;;;;;;;9.19;100.00;102230.72;10199708;28;20081;-69
2021/11/11 10:08:52;;;;;;;78.35;40.28;;;;;;;9.19;100.00;102226.09;10209152;28;20084;-69
2021/11/11 10:13:55;;;;;;;67.97;37.15;;;;;;;9.23;100.00;102231.81;10197311;28;20496;-69
2021/11/11 10:18:56;;;;;;;74.83;39.23;;;;;;;9.18;100.00;102231.81;10210893;28;20050;-69
2021/11/11 10:23:53;;;;;;;77.90;40.45;;;;;;;9.22;100.00;102239.19;10206261;28;20068;-69
2021/11/11 10:28:50;;;;;;;69.55;36.80;;;;;;;9.20;100.00;102246.00;10202544;28;20101;-70
2021/11/11 10:34:08;;;;;;;76.45;38.70;;;;;;;9.18;100.00;102229.09;10215038;28;20077;-68
2021/11/11 10:39:10;;;;;;;64.95;37.45;;;;;;;9.27;100.00;102228.28;10195532;28;20140;-68
2021/11/11 10:44:25;;;;;;;64.88;34.95;;;;;;;9.34;100.00;102233.47;10220095;28;20060;-69
2021/11/11 10:49:36;;;;;;;63.00;35.97;;;;;;;9.48;100.00;102218.16;10211960;28;20072;-69
2021/11/11 10:54:32;;;;;;;58.72;33.40;;;;;;;9.53;100.00;102213.81;10208245;28;20511;-69
2021/11/11 10:59:33;;;;;;;61.17;36.50;;;;;;;9.59;100.00;102212.72;10206989;28;20120;-69
2021/11/11 11:04:29;;;;;;;60.25;33.55;;;;;;;9.66;100.00;102207.78;10213391;28;20087;-69
2021/11/11 11:09:25;;;;;;;58.17;32.33;;;;;;;9.73;100.00;102197.41;10206970;28;20077;-68
2021/11/11 11:14:26;;;;;;;58.25;34.08;;;;;;;9.67;100.00;102209.41;10189281;28;20045;-68
2021/11/11 11:19:23;;;;;;;64.60;35.00;;;;;;;9.61;100.00;102210.53;10205298;28;20041;-69
2021/11/11 11:24:23;;;;;;;53.70;31.55;;;;;;;9.65;100.00;102206.16;10201338;28;20049;-69
2021/11/11 11:29:36;;;;;;;59.70;33.38;;;;;;;9.64;100.00;102199.06;10193502;28;20077;-69
2021/11/11 11:34:41;;;;;;;55.33;33.50;;;;;;;9.62;100.00;102195.78;10196386;28;20470;-69
2021/11/11 11:39:41;;;;;;;52.33;31.33;;;;;;;9.63;100.00;102191.94;10201426;28;20049;-68
2021/11/11 11:44:43;;;;;;;54.67;32.15;;;;;;;9.66;100.00;102194.94;10191784;28;20053;-68
2021/11/11 11:49:42;;;;;;;50.90;32.63;;;;;;;9.65;100.00;102200.69;10204902;28;20108;-68
2021/11/11 11:59:44;;;;;;;52.05;31.73;;;;;;;9.67;100.00;102190.31;10205803;28;20064;-68
2021/11/11 12:05:06;;;;;;;41.90;28.98;;;;;;;9.66;100.00;102191.41;10205210;28;20069;-69
2021/11/11 12:10:20;;;;;;;46.13;30.42;;;;;;;9.71;100.00;102194.13;10201539;28;20061;-69
2021/11/11 12:15:27;;;;;;;47.38;30.52;;;;;;;9.72;100.00;102194.94;10200196;28;20045;-68
2021/11/11 12:42:02;;;;;;;61.38;36.20;;;;;;;9.55;100.00;102189.78;10182198;28;20084;-69
2021/11/11 12:46:59;;;;;;;53.13;36.00;;;;;;;9.55;100.00;102203.44;10195900;28;21348;-68
2021/11/11 12:52:14;;;;;;;60.97;37.22;;;;;;;9.55;100.00;102195.25;10210736;28;20079;-69
2021/11/11 12:57:13;;;;;;;57.90;34.47;;;;;;;9.52;100.00;102187.59;10188948;28;20555;-69
2021/11/11 13:02:12;;;;;;;56.63;36.78;;;;;;;9.55;100.00;102184.31;10205537;28;20470;-68
2021/11/11 13:07:24;;;;;;;54.13;35.17;;;;;;;9.55;100.00;102178.88;10185760;28;20048;-68
2021/11/11 13:12:23;;;;;;;50.72;33.47;;;;;;;9.57;100.00;102187.59;10197760;28;20099;-69
2021/11/11 13:17:48;;;;;;;60.45;33.65;;;;;;;9.57;100.00;102187.59;10184439;28;20506;-69
2021/11/11 13:58:42;;;;;;;60.33;33.80;;;;;;;9.47;100.00;102193.91;10210221;28;20073;-67
2021/11/11 16:27:29;;;;;;;51.75;33.17;;;;;;;9.30;100.00;102243.28;10194901;28;20088;-66
2021/11/11 16:32:26;;;;;;;50.90;35.08;;;;;;;9.27;100.00;102246.56;10196772;28;20069;-67
2021/11/11 16:37:22;;;;;;;45.20;34.28;;;;;;;9.30;100.00;102247.94;10201286;28;20065;-68
2021/11/11 16:42:19;;;;;;;57.13;37.17;;;;;;;9.32;100.00;102252.03;10199943;28;20451;-68
2021/11/11 16:47:22;;;;;;;39.87;26.63;;;;;;;9.34;100.00;102257.22;10189320;28;20128;-68
2021/11/11 16:52:19;;;;;;;44.42;32.03;;;;;;;9.29;100.00;102251.75;10179029;28;20559;-67
2021/11/11 16:57:15;;;;;;;50.15;35.80;;;;;;;9.35;100.00;102262.41;10191117;28;20080;-68
2021/11/11 17:02:12;;;;;;;46.13;32.75;;;;;;;9.35;100.00;102256.97;10205219;28;20104;-67
2021/11/11 17:07:08;;;;;;;53.22;35.58;;;;;;;9.37;100.00;102260.22;10194778;28;20136;-67
2021/11/11 17:12:05;;;;;;;48.65;35.22;;;;;;;9.41;100.00;102266.78;10204892;28;20103;-67
2021/11/11 17:17:02;;;;;;;54.63;38.10;;;;;;;9.41;100.00;102283.16;10204175;28;20046;-67
2021/11/11 17:21:59;;;;;;;61.40;39.08;;;;;;;9.42;100.00;102284.81;10195377;28;20589;-67
2021/11/11 17:31:55;;;;;;;67.93;42.85;;;;;;;9.45;100.00;102295.19;10184577;28;20065;-67
2021/11/11 17:36:51;;;;;;;64.57;40.83;;;;;;;9.45;100.00;102292.44;10188548;28;20049;-67
2021/11/11 17:41:49;;;;;;;65.97;40.63;;;;;;;9.43;100.00;102302.00;10183056;28;20077;-69
2021/11/11 17:46:54;;;;;;;67.90;41.15;;;;;;;9.48;100.00;102297.34;10188048;28;20074;-67
2021/11/11 17:56:50;;;;;;;67.00;41.80;;;;;;;9.43;100.00;102286.44;10204154;28;20073;-67
2021/11/11 18:01:47;;;;;;;63.20;38.15;;;;;;;9.50;100.00;102285.34;10205451;28;20075;-67
2021/11/11 18:07:04;;;;;;;73.07;41.40;;;;;;;9.46;100.00;102288.59;10199213;28;20048;-68
2021/11/11 18:12:04;;;;;;;59.78;39.20;;;;;;;9.46;100.00;102291.34;10203969;28;20066;-68
2021/11/11 18:17:01;;;;;;;73.57;43.90;;;;;;;9.42;100.00;102295.72;10192370;28;20042;-67
2021/11/11 18:21:58;;;;;;;69.82;40.55;;;;;;;9.45;100.00;102286.97;10191471;28;20136;-67
2021/11/11 18:26:56;;;;;;;73.20;43.05;;;;;;;9.44;100.00;102285.31;10204026;28;20033;-69
2021/11/11 18:37:03;;;;;;;72.75;43.63;;;;;;;9.36;100.00;102296.00;10215050;28;20077;-69
2021/11/11 18:42:01;;;;;;;73.32;44.33;;;;;;;9.41;100.00;102304.19;10193081;28;20627;-69
2021/11/11 18:47:28;;;;;;;72.00;42.45;;;;;;;9.39;100.00;102307.16;10208879;28;20069;-69
2021/11/11 18:52:28;;;;;;;71.30;43.92;;;;;;;9.36;100.00;102307.72;10225522;28;20660;-68
2021/11/11 18:57:25;;;;;;;78.03;43.65;;;;;;;9.43;100.00;102302.00;10190478;28;20104;-67
2021/11/11 19:02:25;;;;;;;71.18;41.38;;;;;;;9.47;100.00;102306.66;10187942;28;20080;-68
2021/11/11 19:07:29;;;;;;;66.30;42.17;;;;;;;9.46;100.00;102306.91;10200434;28;20518;-69
2021/11/11 19:12:35;;;;;;;67.50;41.35;;;;;;;9.42;100.00;102295.72;10204988;28;20042;-69
2021/11/11 19:17:53;;;;;;;62.65;37.15;;;;;;;9.41;100.00;102285.88;10204614;28;20041;-68
2021/11/11 19:22:54;;;;;;;71.88;40.53;;;;;;;9.42;100.00;102283.97;10205508;28;20700;-68
2021/11/11 19:27:52;;;;;;;73.90;40.45;;;;;;;9.41;100.00;102294.06;10189751;28;20049;-68
2021/11/11 19:32:52;;;;;;;70.13;39.38;;;;;;;9.33;100.00;102291.88;10198588;28;20060;-68
2021/11/11 19:43:08;;;;;;;67.90;40.15;;;;;;;9.37;100.00;102292.16;10197158;28;20084;-68
2021/11/11 19:58:36;;;;;;;76.25;42.58;;;;;;;9.37;100.00;102295.69;10209925;28;20076;-68
2021/11/11 20:19:11;;;;;;;77.25;43.03;;;;;;;9.30;100.00;102292.41;10191170;28;20049;-67
2021/11/11 20:29:46;;;;;;;81.32;44.65;;;;;;;9.37;100.00;102290.22;10200376;28;20037;-68
2021/11/11 20:34:57;;;;;;;83.72;44.42;;;;;;;9.43;100.00;102291.88;10193147;28;20435;-69
2021/11/11 21:01:01;;;;;;;88.53;45.22;;;;;;;9.44;100.00;102285.31;10141767;28;20046;-68
2021/11/11 21:11:21;;;;;;;81.63;45.15;;;;;;;9.41;100.00;102288.59;10190395;28;20471;-69
2021/11/11 21:21:15;;;;;;;76.78;40.08;;;;;;;9.31;100.00;102285.88;10192164;28;20046;-68
2021/11/11 21:26:11;;;;;;;88.20;40.55;;;;;;;9.33;100.00;102285.59;10181632;28;20435;-69
2021/11/11 21:31:09;;;;;;;85.07;42.33;;;;;;;9.19;100.00;102291.59;10198056;28;20046;-69
2021/11/11 21:41:18;;;;;;;91.47;45.65;;;;;;;9.25;100.00;102279.56;10206134;28;20056;-68
2021/11/11 21:46:15;;;;;;;89.47;42.75;;;;;;;9.25;100.00;102279.56;10192541;28;20511;-69
2021/11/11 21:51:13;;;;;;;88.15;44.33;;;;;;;9.27;100.00;102282.03;10212094;28;20075;-67
2021/11/11 21:56:20;;;;;;;100.00;45.95;;;;;;;9.22;100.00;102274.66;10194548;28;20151;-68
2021/11/11 22:27:31;;;;;;;97.15;44.88;;;;;;;9.16;100.00;102291.31;10172608;28;20070;-68
2021/11/11 22:32:27;;;;;;;101.07;47.10;;;;;;;9.11;100.00;102288.56;10193318;28;20038;-68
2021/11/11 22:37:24;;;;;;;94.97;41.88;;;;;;;9.11;100.00;102283.09;10188077;28;20069;-68
2021/11/11 22:42:20;;;;;;;104.72;45.47;;;;;;;9.19;100.00;102279.84;10198316;28;20049;-67
2021/11/11 22:47:17;;;;;;;91.18;43.15;;;;;;;9.21;100.00;102270.31;10188693;28;20499;-68
2021/11/11 22:52:13;;;;;;;99.68;43.20;;;;;;;9.23;100.00;102261.84;10205576;28;20046;-69
2021/11/11 22:57:21;;;;;;;95.60;43.33;;;;;;;9.26;100.00;102277.69;10198161;28;20046;-69
2021/11/11 23:02:23;;;;;;;94.78;44.92;;;;;;;9.26;100.00;102270.31;10201701;28;20475;-68
2021/11/11 23:12:54;;;;;;;102.10;45.65;;;;;;;9.29;100.00;102263.50;10196999;28;20732;-68
2021/11/11 23:33:50;;;;;;;88.28;41.78;;;;;;;9.13;100.00;102259.09;10166157;28;20484;-69
2021/11/11 23:38:47;;;;;;;101.57;43.72;;;;;;;9.13;100.00;102253.66;10199773;28;20126;-69
2021/11/11 23:43:45;;;;;;;99.28;41.10;;;;;;;9.16;100.00;102261.28;10208938;28;20049;-69
2021/11/11 23:48:49;;;;;;;103.40;45.03;;;;;;;9.11;100.00;102250.38;10206801;28;20046;-69
